createdAt,value
2019-02-15T00:02:11.339Z,29.43
2019-02-15T00:04:39.050Z,28.77
2019-02-15T00:07:06.645Z,28.50
2019-02-15T00:09:34.278Z,27.20
2019-02-15T00:12:01.891Z,27.03
2019-02-15T00:14:37.345Z,23.50
2019-02-15T00:17:05.240Z,25.90
2019-02-15T00:19:39.961Z,23.20
2019-02-15T00:22:08.039Z,24.47
2019-02-15T00:24:35.647Z,22.20
2019-02-15T00:27:04.273Z,24.53
2019-02-15T00:29:31.922Z,25.50
2019-02-15T00:31:59.521Z,27.00
2019-02-15T00:34:27.223Z,28.37
2019-02-15T00:36:55.187Z,31.93
2019-02-15T00:39:37.391Z,32.07
2019-02-15T00:44:42.645Z,30.67
2019-02-15T00:47:35.846Z,30.13
2019-02-15T00:50:32.403Z,31.27
2019-02-15T00:53:10.935Z,32.77
2019-02-15T00:56:00.631Z,34.43
2019-02-15T00:58:52.939Z,29.17
2019-02-15T01:01:55.729Z,33.77
2019-02-15T01:04:41.821Z,36.33
2019-02-15T01:07:40.589Z,36.23
2019-02-15T01:10:33.475Z,45.77
2019-02-15T01:13:05.618Z,37.77
2019-02-15T01:15:33.202Z,40.10
2019-02-15T01:18:00.804Z,41.73
2019-02-15T01:20:28.383Z,44.50
2019-02-15T01:22:56.025Z,37.77
2019-02-15T01:25:24.915Z,42.93
2019-02-15T01:28:06.962Z,44.10
2019-02-15T01:31:03.185Z,44.93
2019-02-15T01:34:08.701Z,42.23
2019-02-15T01:36:46.647Z,42.07
2019-02-15T01:39:40.380Z,51.23
2019-02-15T01:42:22.586Z,48.13
2019-02-15T01:45:10.141Z,58.37
2019-02-15T01:47:42.374Z,56.63
2019-02-15T01:50:09.966Z,58.80
2019-02-15T01:52:37.845Z,54.43
2019-02-15T01:55:06.551Z,57.33
2019-02-15T02:03:06.209Z,53.67
2019-02-15T02:05:34.135Z,54.53
2019-02-15T02:08:01.967Z,46.40
2019-02-15T02:10:30.185Z,47.60
2019-02-15T02:12:58.042Z,45.10
2019-02-15T02:15:25.968Z,47.43
2019-02-15T02:17:53.847Z,44.93
2019-02-15T02:20:21.825Z,42.27
2019-02-15T02:22:50.149Z,45.70
2019-02-15T02:25:18.564Z,41.17
2019-02-15T02:27:46.444Z,45.83
2019-02-15T02:30:14.315Z,45.17
2019-02-15T02:32:42.264Z,50.00
2019-02-15T02:35:10.473Z,53.23
2019-02-15T02:37:38.307Z,50.40
2019-02-15T02:40:06.819Z,54.30
2019-02-15T02:42:35.120Z,52.17
2019-02-15T02:45:03.146Z,49.17
2019-02-15T02:47:31.742Z,45.30
2019-02-15T02:49:59.616Z,50.00
2019-02-15T02:52:27.565Z,52.63
2019-02-15T02:54:55.375Z,52.00
2019-02-15T02:57:23.351Z,51.70
2019-02-15T02:59:51.907Z,52.27
2019-02-15T03:02:19.790Z,46.57
2019-02-15T03:04:47.768Z,46.00
2019-02-15T03:07:15.675Z,50.53
2019-02-15T03:09:43.567Z,58.63
2019-02-15T03:12:11.736Z,46.23
2019-02-15T03:14:39.584Z,52.53
2019-02-15T03:17:07.845Z,55.00
2019-02-15T03:19:35.763Z,47.73
2019-02-15T03:22:03.698Z,49.27
2019-02-15T03:24:31.726Z,56.70
2019-02-15T03:27:00.109Z,59.63
2019-02-15T03:29:28.354Z,53.27
2019-02-15T03:31:56.298Z,56.83
2019-02-15T03:34:25.677Z,52.10
2019-02-15T03:37:10.394Z,51.40
2019-02-15T03:39:44.401Z,44.10
2019-02-15T03:42:14.124Z,44.43
2019-02-15T03:44:42.206Z,40.60
2019-02-15T03:47:11.096Z,45.13
2019-02-15T03:49:39.579Z,40.50
2019-02-15T03:52:08.061Z,38.20
2019-02-15T03:54:35.928Z,37.27
2019-02-15T03:57:04.216Z,38.97
2019-02-15T03:59:32.222Z,34.23
2019-02-15T04:02:00.236Z,34.73
2019-02-15T04:04:28.631Z,35.80
2019-02-15T04:06:56.668Z,31.33
2019-02-15T04:09:24.713Z,30.33
2019-02-15T04:11:52.484Z,33.17
2019-02-15T04:14:20.377Z,27.43
2019-02-15T04:16:50.336Z,20.90
2019-02-15T04:19:19.492Z,21.87
2019-02-15T04:21:47.400Z,18.90
2019-02-15T04:24:15.182Z,18.73
2019-02-15T04:26:47.251Z,17.37
2019-02-15T04:29:15.508Z,16.20
2019-02-15T04:31:43.340Z,15.90
2019-02-15T04:34:19.435Z,13.47
2019-02-15T04:40:13.220Z,10.57
2019-02-15T04:42:50.024Z,12.47
2019-02-15T04:46:02.135Z,14.23
2019-02-15T04:48:47.986Z,16.97
2019-02-15T04:51:20.304Z,12.87
2019-02-15T04:54:13.440Z,14.77
2019-02-15T04:56:47.059Z,11.57
2019-02-15T04:59:20.714Z,13.40
2019-02-15T05:02:25.573Z,10.70
2019-02-15T05:05:21.597Z,12.63
2019-02-15T05:07:57.858Z,12.60
2019-02-15T05:10:36.601Z,10.33
2019-02-15T05:16:12.199Z,13.97
2019-02-15T05:18:43.350Z,14.13
2019-02-15T05:21:12.977Z,12.30
2019-02-15T05:23:41.252Z,13.03
2019-02-15T05:26:09.242Z,10.47
2019-02-15T05:28:37.384Z,11.40
2019-02-15T05:31:05.662Z,12.60
2019-02-15T05:33:35.542Z,12.37
2019-02-15T05:36:04.055Z,12.33
2019-02-15T05:38:33.036Z,11.87
2019-02-15T05:41:01.398Z,16.33
2019-02-15T05:43:29.371Z,15.27
2019-02-15T05:45:57.305Z,13.43
2019-02-15T05:48:25.671Z,12.20
2019-02-15T05:50:53.630Z,13.20
2019-02-15T05:53:21.595Z,14.17
2019-02-15T05:55:49.404Z,13.03
2019-02-15T05:58:17.576Z,14.10
2019-02-15T06:00:45.888Z,19.60
2019-02-15T06:03:13.963Z,15.87
2019-02-15T06:05:42.024Z,15.93
2019-02-15T06:08:10.009Z,19.97
2019-02-15T06:10:37.960Z,20.67
2019-02-15T06:13:06.535Z,18.20
2019-02-15T06:15:34.370Z,20.23
2019-02-15T06:18:02.278Z,18.93
2019-02-15T06:20:31.160Z,20.87
2019-02-15T06:22:59.176Z,20.77
2019-02-15T06:25:27.429Z,25.20
2019-02-15T06:27:55.364Z,27.17
2019-02-15T06:30:23.264Z,22.83
2019-02-15T06:32:51.079Z,28.60
2019-02-15T06:35:20.504Z,25.60
2019-02-15T06:37:49.246Z,24.77
2019-02-15T06:40:17.426Z,29.53
2019-02-15T06:42:45.922Z,27.20
2019-02-15T06:45:13.950Z,21.97
2019-02-15T06:47:41.971Z,29.03
2019-02-15T06:50:12.607Z,28.17
2019-02-15T06:52:40.663Z,26.50
2019-02-15T06:55:08.755Z,26.13
2019-02-15T06:57:36.743Z,32.07
2019-02-15T07:00:42.430Z,26.23
2019-02-15T07:03:35.689Z,33.07
2019-02-15T07:06:03.655Z,32.70
2019-02-15T07:08:32.333Z,36.33
2019-02-15T07:11:00.290Z,36.20
2019-02-15T07:13:28.173Z,35.27
2019-02-15T07:15:56.083Z,37.83
2019-02-15T07:18:24.464Z,36.63
2019-02-15T07:20:52.425Z,39.07
2019-02-15T07:23:20.279Z,33.03
2019-02-15T07:25:48.299Z,36.60
2019-02-15T07:28:16.765Z,37.83
2019-02-15T07:30:44.677Z,42.83
2019-02-15T07:33:12.705Z,42.27
2019-02-15T07:35:40.637Z,46.50
2019-02-15T07:38:08.665Z,36.43
2019-02-15T07:40:36.495Z,38.10
2019-02-15T07:43:04.484Z,39.90
2019-02-15T07:45:32.317Z,36.63
2019-02-15T07:48:00.218Z,40.63
2019-02-15T07:50:28.087Z,35.87
2019-02-15T07:52:55.987Z,43.20
2019-02-15T07:55:24.216Z,42.17
2019-02-15T07:57:52.503Z,42.03
2019-02-15T08:00:20.871Z,40.67
2019-02-15T08:02:48.725Z,35.50
2019-02-15T08:05:16.609Z,31.37
2019-02-15T08:07:44.469Z,24.63
2019-02-15T08:10:18.680Z,17.63
2019-02-15T08:12:47.043Z,21.93
2019-02-15T08:15:15.751Z,15.53
2019-02-15T08:17:43.656Z,18.57
2019-02-15T08:20:14.289Z,15.93
2019-02-15T08:22:42.228Z,18.23
2019-02-15T08:28:45.949Z,11.77
2019-02-15T08:31:13.631Z,12.30
2019-02-15T08:33:41.266Z,13.20
2019-02-15T08:36:08.787Z,11.53
2019-02-15T08:38:36.763Z,12.20
2019-02-15T08:41:04.360Z,13.07
2019-02-15T08:43:31.974Z,14.97
2019-02-15T08:46:01.745Z,14.27
2019-02-15T08:48:29.016Z,12.77
2019-02-15T08:50:56.621Z,14.40
2019-02-15T08:53:24.581Z,14.13
2019-02-15T08:55:52.150Z,14.17
2019-02-15T08:58:20.030Z,12.90
2019-02-15T09:00:47.561Z,13.63
2019-02-15T09:03:15.207Z,11.97
2019-02-15T09:05:43.209Z,16.57
2019-02-15T09:08:10.850Z,14.67
2019-02-15T09:10:38.481Z,16.73
2019-02-15T09:13:06.106Z,17.27
2019-02-15T09:15:33.751Z,23.73
2019-02-15T09:18:01.361Z,36.57
2019-02-15T09:20:28.955Z,44.27
2019-02-15T09:22:57.758Z,70.67
2019-02-15T09:25:25.357Z,72.43
2019-02-15T09:28:15.047Z,76.53
2019-02-15T09:30:44.283Z,46.57
2019-02-15T09:33:11.903Z,33.30
2019-02-15T09:35:39.912Z,20.77
2019-02-15T09:41:15.070Z,16.20
2019-02-15T09:43:42.806Z,14.50
2019-02-15T09:46:19.266Z,20.60
2019-02-15T09:48:40.269Z,16.20
2019-02-15T09:51:08.122Z,12.70
2019-02-15T09:53:36.157Z,16.07
2019-02-15T09:56:03.870Z,13.63
2019-02-15T09:58:31.948Z,19.27
2019-02-15T10:00:59.766Z,10.87
2019-02-15T10:03:27.451Z,15.70
2019-02-15T10:05:55.898Z,14.90
2019-02-15T10:08:23.599Z,12.67
2019-02-15T10:10:51.447Z,11.33
2019-02-15T10:13:19.326Z,17.80
2019-02-15T10:15:48.420Z,12.20
2019-02-15T10:18:16.284Z,14.90
2019-02-15T10:20:43.984Z,9.00
2019-02-15T10:23:11.732Z,14.93
2019-02-15T10:25:39.459Z,15.43
2019-02-15T10:28:07.658Z,14.60
2019-02-15T10:30:35.632Z,16.97
2019-02-15T10:33:03.684Z,12.57
2019-02-15T10:35:31.824Z,16.20
2019-02-15T10:37:59.609Z,17.93
2019-02-15T10:40:27.928Z,14.90
2019-02-15T10:42:55.928Z,14.67
2019-02-15T10:45:23.434Z,12.90
2019-02-15T10:47:51.061Z,13.33
2019-02-15T10:50:18.760Z,15.07
2019-02-15T10:55:32.361Z,11.50
2019-02-15T10:58:00.354Z,10.37
2019-02-15T11:03:15.634Z,8.60
2019-02-15T11:05:44.464Z,13.83
2019-02-15T11:08:12.330Z,13.07
2019-02-15T11:10:39.977Z,14.77
2019-02-15T11:13:07.566Z,14.80
2019-02-15T11:15:35.323Z,11.30
2019-02-15T11:18:03.234Z,11.87
2019-02-15T11:20:30.961Z,11.13
2019-02-15T11:22:58.618Z,10.30
2019-02-15T11:25:26.384Z,11.40
2019-02-15T11:27:53.978Z,12.43
2019-02-15T11:30:21.610Z,10.77
2019-02-15T11:32:49.347Z,16.70
2019-02-15T11:35:17.352Z,13.13
2019-02-15T11:37:45.057Z,10.10
2019-02-15T11:40:13.403Z,7.17
2019-02-15T11:42:41.100Z,11.28
2019-02-15T11:45:09.501Z,13.67
2019-02-15T11:47:37.422Z,8.47
2019-02-15T11:50:05.177Z,5.07
2019-02-15T11:52:32.878Z,8.78
2019-02-15T11:55:02.380Z,6.45
2019-02-15T11:57:30.094Z,8.67
2019-02-15T11:59:57.606Z,6.40
2019-02-15T12:02:25.304Z,8.53
2019-02-15T12:04:52.719Z,7.17
2019-02-15T12:07:20.311Z,7.57
2019-02-15T12:09:47.949Z,6.27
2019-02-15T12:12:15.582Z,5.83
2019-02-15T12:17:28.864Z,7.43
2019-02-15T12:19:56.445Z,9.47
2019-02-15T12:22:24.389Z,8.70
2019-02-15T12:24:51.993Z,7.90
2019-02-15T12:27:19.563Z,9.63
2019-02-15T12:29:47.115Z,7.10
2019-02-15T12:32:14.695Z,7.67
2019-02-15T12:34:42.510Z,12.10
2019-02-15T12:37:10.070Z,9.80
2019-02-15T12:39:37.535Z,9.80
2019-02-15T12:42:05.398Z,7.53
2019-02-15T12:44:32.987Z,10.95
2019-02-15T12:47:01.131Z,8.07
2019-02-15T12:49:28.655Z,8.40
2019-02-15T12:51:56.459Z,6.15
2019-02-15T12:54:23.907Z,9.13
2019-02-15T12:56:51.481Z,9.60
2019-02-15T12:59:19.054Z,9.48
2019-02-15T13:01:46.857Z,7.58
2019-02-15T13:04:14.433Z,7.17
2019-02-15T13:06:43.181Z,6.65
2019-02-15T13:09:10.857Z,9.63
2019-02-15T13:11:38.417Z,5.47
2019-02-15T13:14:05.966Z,12.05
2019-02-15T13:16:33.545Z,24.30
2019-02-15T13:19:01.121Z,15.83
2019-02-15T13:21:29.211Z,23.00
2019-02-15T13:23:56.991Z,12.23
2019-02-15T13:26:24.866Z,9.13
2019-02-15T13:28:53.337Z,12.88
2019-02-15T13:31:23.057Z,9.97
2019-02-15T13:33:50.777Z,6.75
2019-02-15T13:36:18.787Z,8.15
2019-02-15T13:38:48.058Z,8.53
2019-02-15T13:41:16.009Z,6.85
2019-02-15T13:43:44.493Z,7.67
2019-02-15T13:46:12.041Z,8.78
2019-02-15T13:48:40.219Z,11.55
2019-02-15T13:51:07.819Z,7.90
2019-02-15T13:53:35.937Z,8.55
2019-02-15T13:56:03.689Z,7.92
2019-02-15T13:58:31.765Z,5.95
2019-02-15T14:00:59.875Z,7.75
2019-02-15T14:03:27.752Z,12.03
2019-02-15T14:05:55.515Z,7.37
2019-02-15T14:08:23.633Z,9.15
2019-02-15T14:10:51.511Z,10.25
2019-02-15T14:13:19.156Z,9.75
2019-02-15T14:15:47.074Z,9.30
2019-02-15T14:18:15.406Z,7.33
2019-02-15T14:20:44.145Z,8.10
2019-02-15T14:23:13.906Z,9.03
2019-02-15T14:25:41.494Z,13.70
2019-02-15T14:28:09.487Z,8.78
2019-02-15T14:30:37.058Z,12.25
2019-02-15T14:33:04.953Z,8.30
2019-02-15T14:35:34.150Z,7.20
2019-02-15T14:38:02.333Z,8.78
2019-02-15T14:40:30.209Z,10.78
2019-02-15T14:42:58.018Z,9.78
2019-02-15T14:45:26.091Z,6.83
2019-02-15T14:47:55.357Z,7.62
2019-02-15T14:50:23.316Z,12.78
2019-02-15T14:52:51.398Z,8.73
2019-02-15T14:55:19.175Z,10.57
2019-02-15T14:57:47.078Z,10.60
2019-02-15T15:00:14.971Z,8.05
2019-02-15T15:02:43.190Z,12.40
2019-02-15T15:05:12.237Z,7.67
2019-02-15T15:07:39.998Z,9.70
2019-02-15T15:10:08.405Z,7.05
2019-02-15T15:12:36.522Z,8.98
2019-02-15T15:15:04.678Z,12.95
2019-02-15T15:17:32.477Z,9.45
2019-02-15T15:20:00.363Z,7.27
2019-02-15T15:22:28.204Z,9.33
2019-02-15T15:24:56.056Z,8.80
2019-02-15T15:27:23.762Z,6.15
2019-02-15T15:29:51.894Z,7.78
2019-02-15T15:32:19.714Z,7.25
2019-02-15T15:34:48.074Z,11.13
2019-02-15T15:37:16.770Z,6.70
2019-02-15T15:39:44.684Z,7.53
2019-02-15T15:42:12.806Z,6.50
2019-02-15T15:44:40.554Z,8.23
2019-02-15T15:47:08.567Z,6.05
2019-02-15T15:52:43.952Z,8.10
2019-02-15T15:58:06.291Z,8.75
2019-02-15T16:00:39.023Z,6.77
2019-02-15T16:03:04.820Z,10.00
2019-02-15T16:05:32.507Z,8.40
2019-02-15T16:08:00.406Z,8.40
2019-02-15T16:10:28.454Z,11.63
2019-02-15T16:12:56.176Z,9.00
2019-02-15T16:15:41.593Z,11.40
2019-02-15T16:18:09.442Z,9.70
2019-02-15T16:20:37.115Z,10.80
2019-02-15T16:23:05.902Z,8.93
2019-02-15T16:25:33.598Z,14.00
2019-02-15T16:28:03.639Z,15.00
2019-02-15T16:30:31.290Z,14.17
2019-02-15T16:32:59.074Z,10.77
2019-02-15T16:35:26.747Z,9.20
2019-02-15T16:37:54.496Z,8.50
2019-02-15T16:40:22.420Z,8.77
2019-02-15T16:42:50.200Z,10.00
2019-02-15T16:45:18.881Z,6.83
2019-02-15T16:47:47.157Z,11.50
2019-02-15T16:50:14.902Z,9.20
2019-02-15T16:52:42.647Z,14.27
2019-02-15T16:55:12.817Z,9.13
2019-02-15T16:57:40.030Z,13.40
2019-02-15T17:00:07.782Z,11.20
2019-02-15T17:02:35.391Z,9.00
2019-02-15T17:05:04.074Z,12.23
2019-02-15T17:07:31.982Z,9.40
2019-02-15T17:09:59.649Z,9.10
2019-02-15T17:12:27.300Z,11.13
2019-02-15T17:14:55.294Z,10.43
2019-02-15T17:17:23.206Z,12.57
2019-02-15T17:19:51.956Z,17.23
2019-02-15T17:22:19.613Z,15.73
2019-02-15T17:24:47.340Z,19.67
2019-02-15T17:27:15.005Z,11.27
2019-02-15T17:29:42.764Z,15.37
2019-02-15T17:32:10.407Z,12.97
2019-02-15T17:34:38.088Z,16.57
2019-02-15T17:37:06.639Z,11.63
2019-02-15T17:39:34.596Z,12.43
2019-02-15T17:42:02.546Z,12.27
2019-02-15T17:44:30.604Z,16.03
2019-02-15T17:46:58.344Z,16.17
2019-02-15T17:49:26.020Z,16.60
2019-02-15T17:51:54.060Z,13.10
2019-02-15T17:54:21.722Z,22.87
2019-02-15T17:59:32.055Z,18.93
2019-02-15T18:01:59.710Z,18.07
2019-02-15T18:04:28.654Z,24.83
2019-02-15T18:06:56.248Z,17.17
2019-02-15T18:09:23.903Z,19.00
2019-02-15T18:11:52.468Z,12.87
2019-02-15T18:14:20.091Z,16.10
2019-02-15T18:16:47.698Z,18.10
2019-02-15T18:19:15.365Z,18.70
2019-02-15T18:21:42.975Z,18.13
2019-02-15T18:24:10.602Z,19.07
2019-02-15T18:26:38.214Z,17.83
2019-02-15T18:29:06.163Z,16.67
2019-02-15T18:31:34.015Z,22.13
2019-02-15T18:34:01.541Z,21.60
2019-02-15T18:36:29.127Z,27.83
2019-02-15T18:38:56.711Z,26.43
2019-02-15T18:41:24.290Z,21.73
2019-02-15T18:43:52.131Z,21.10
2019-02-15T18:46:19.767Z,24.33
2019-02-15T18:48:47.343Z,34.27
2019-02-15T18:51:15.978Z,22.60
2019-02-15T18:53:44.121Z,38.80
2019-02-15T18:56:11.592Z,42.63
2019-02-15T18:58:39.484Z,37.03
2019-02-15T19:01:07.041Z,35.57
2019-02-15T19:03:34.603Z,31.83
2019-02-15T19:06:05.645Z,25.73
2019-02-15T19:11:19.270Z,19.63
2019-02-15T19:13:47.007Z,20.67
2019-02-15T19:16:14.744Z,25.60
2019-02-15T19:18:42.494Z,23.53
2019-02-15T19:21:10.155Z,21.20
2019-02-15T19:23:37.777Z,18.10
2019-02-15T19:26:05.573Z,17.57
2019-02-15T19:28:33.236Z,18.57
2019-02-15T19:31:00.990Z,16.03
2019-02-15T19:33:28.759Z,14.00
2019-02-15T19:35:56.683Z,14.03
2019-02-15T19:38:24.391Z,13.37
2019-02-15T19:40:52.031Z,14.57
2019-02-15T19:43:19.693Z,10.50
2019-02-15T19:45:48.467Z,11.55
2019-02-15T19:48:16.138Z,10.07
2019-02-15T19:50:43.779Z,11.47
2019-02-15T19:53:11.505Z,9.23
2019-02-15T19:55:39.161Z,10.97
2019-02-15T19:58:07.036Z,11.00
2019-02-15T20:00:35.679Z,12.97
2019-02-15T20:03:03.408Z,11.53
2019-02-15T20:05:31.108Z,13.37
2019-02-15T20:07:59.039Z,15.43
2019-02-15T20:10:55.558Z,11.63
2019-02-15T20:13:23.153Z,11.80
2019-02-15T20:21:20.855Z,11.27
2019-02-15T20:23:48.751Z,12.30
2019-02-15T20:26:16.353Z,13.20
2019-02-15T20:28:43.970Z,16.60
2019-02-15T20:31:11.567Z,14.73
2019-02-15T20:33:40.445Z,11.93
2019-02-15T20:36:07.973Z,12.17
2019-02-15T20:38:35.546Z,11.57
2019-02-15T20:41:03.390Z,12.57
2019-02-15T20:43:31.253Z,14.93
2019-02-15T20:45:58.782Z,11.30
2019-02-15T20:48:26.393Z,13.10
2019-02-15T20:50:53.943Z,13.10
2019-02-15T20:53:21.837Z,18.73
2019-02-15T20:55:49.433Z,17.60
2019-02-15T20:58:17.263Z,16.23
2019-02-15T21:00:45.111Z,13.33
2019-02-15T21:03:12.635Z,13.47
2019-02-15T21:05:41.480Z,17.63
2019-02-15T21:08:09.011Z,17.40
2019-02-15T21:10:36.877Z,18.33
2019-02-15T21:13:04.405Z,14.70
2019-02-15T21:15:32.013Z,16.80
2019-02-15T21:17:59.514Z,13.80
2019-02-15T21:20:27.831Z,18.97
2019-02-15T21:22:56.753Z,16.37
2019-02-15T21:31:03.884Z,19.40
2019-02-15T21:33:31.486Z,14.47
2019-02-15T21:35:59.025Z,14.70
2019-02-15T21:38:26.645Z,15.97
2019-02-15T21:40:54.481Z,13.37
2019-02-15T21:43:22.040Z,17.40
2019-02-15T21:45:49.592Z,15.23
2019-02-15T21:48:17.192Z,14.20
2019-02-15T21:50:44.610Z,17.73
2019-02-15T21:53:12.383Z,17.03
2019-02-15T21:55:39.964Z,18.90
2019-02-15T21:58:07.587Z,17.20
2019-02-15T22:00:35.135Z,19.10
2019-02-15T22:03:03.364Z,18.87
2019-02-15T22:05:30.939Z,20.57
2019-02-15T22:07:58.739Z,20.40
2019-02-15T22:10:26.341Z,19.50
2019-02-15T22:12:53.889Z,21.53
2019-02-15T22:15:21.476Z,21.67
2019-02-15T22:17:49.307Z,18.70
2019-02-15T22:20:25.924Z,19.80
2019-02-15T22:22:46.232Z,21.03
2019-02-15T22:25:13.777Z,19.23
2019-02-15T22:27:41.403Z,19.20
2019-02-15T22:30:09.896Z,20.30
2019-02-15T22:32:37.471Z,17.20
2019-02-15T22:35:05.292Z,18.93
2019-02-15T22:37:32.853Z,17.90
2019-02-15T22:40:19.912Z,19.20
2019-02-15T22:42:47.506Z,22.23
2019-02-15T22:45:15.347Z,19.00
2019-02-15T22:47:42.930Z,20.80
2019-02-15T22:50:10.492Z,18.17
2019-02-15T22:52:38.244Z,19.10
2019-02-15T22:55:06.093Z,21.00
2019-02-15T22:57:34.355Z,19.67
2019-02-15T23:00:02.968Z,19.47
2019-02-15T23:02:31.619Z,18.63
2019-02-15T23:04:59.485Z,19.23
2019-02-15T23:07:27.026Z,20.23
2019-02-15T23:09:55.604Z,18.80
2019-02-15T23:12:23.335Z,20.37
2019-02-15T23:14:50.958Z,17.50
2019-02-15T23:17:18.493Z,18.70
2019-02-15T23:19:46.086Z,19.73
2019-02-15T23:22:13.626Z,17.90
2019-02-15T23:24:41.767Z,19.07
2019-02-15T23:27:09.342Z,21.27
2019-02-15T23:29:36.878Z,23.73
2019-02-15T23:32:04.708Z,19.57
2019-02-15T23:34:32.230Z,18.33
2019-02-15T23:36:59.788Z,22.83
2019-02-15T23:39:27.339Z,23.57
2019-02-15T23:41:54.896Z,24.67
2019-02-15T23:44:22.364Z,19.07
2019-02-15T23:46:49.959Z,19.40
2019-02-15T23:49:17.550Z,20.43
2019-02-15T23:51:45.149Z,17.23
2019-02-15T23:54:12.735Z,17.03
2019-02-15T23:56:40.197Z,20.83
2019-02-15T23:59:07.755Z,17.87
